Terminal Aerodrome Forecast
Issued by NWS Sterling, VA

Current Version | Previous Version | Graphics & Text | Print | Product List | Glossary On
Versions: 1 2 3 4 5 6 7 8 9 10 11 12 13 14
000
FTUS41 KLWX 211730
TAFMRB
TAF
KMRB 211730Z 2118/2218 01004KT P6SM FEW060 SCT200
     FM220600 VRB03KT 4SM BR FEW040 FEW250
     FM220900 VRB03KT 2SM BR FEW040 FEW250
     FM221200 00000KT 4SM BR FEW040 FEW250
     FM221500 35004KT P6SM FEW040 FEW250=

USA.gov is the U.S. government's official web portal to all federal, state and local government web resources and services.